Terminal Aerodrome Forecast
Issued by NWS

Home | Current Version | Previous Version | Text Only | Print | Product List | Glossary On
Versions: 1 2 3 4 5 6 7 8 9 10 11 12 13 14 15 16 17 18 19 20 21 22 23 24
322
FTUS44 KFWD 190905 AAA
TAFAFW
TAF AMD
KAFW 190905Z 1909/2006 16010KT P6SM BKN300
     FM192300 13008KT P6SM SCT060 BKN300=

USA.gov is the U.S. government's official web portal to all federal, state and local government web resources and services.